Terminal Aerodrome Forecast
Issued by NWS

Home | Current Version | Previous Version | Text Only | Print | Product List | Glossary On
Versions: 1 2 3 4 5 6 7 8 9 10 11 12 13 14
000
FTUS44 KBMX 271135
TAFEET
TAF
KEET 271135Z 2712/2812 19004KT P6SM FEW014 OVC019
     FM271430 18006KT P6SM SCT025 BKN035
     FM272000 19011KT P6SM VCTS SCT045CB
     FM280100 20006KT P6SM SCT045=

USA.gov is the U.S. government's official web portal to all federal, state and local government web resources and services.